If you wish to contribute or participate in the discussions about articles you are invited to join SKYbrary as a registered user

 Actions

Bou Chekif Airport

From SKYbrary Wiki

DAOB
Airport
ICAO: DAOB – IATA: TID
Summary
Name Bou Chekif Airport
Region Africa
Territory Algeria DZ.gif
Location , Tiaret
Serving Tiaret
Elevation 989.076 m
3,245 ft
3,245 ft989.076 m
Type medium airport
Coordinates 35° 20' 28.09" N, 1° 27' 47.33" E
Runways
Designator Length Width Surface ROPS
8/26 3000 m9,842.52 ft
45 m147.638 ft
ASP /


METAR
Observation DAOB 250200Z 16005KT CAVOK 06/05 Q1017
Station Tiaret
Date/Time 25 April 2019 02:00:00
Wind direction 160°
Wind speed 05 kts
Lowest cloud amount clouds and visibility OK
Temperature 6°C
Dew point 5°C
Humidity 93%
QNH 1017 hPa
Weather condition n/a